aviador You're here:

PAEN Decoded Metar

KENAI in AK, USA
Report Time2017-09-23 19:53:00
UTC Time2017-09-23 20:06:20
Flight Rules vfr VFR
Wind030° at 10 kt
W.Decomp.*RWY 01: 10.0 kt HW 0.2 kt RCW
W.Rank030° ranks 2
Current wind is above 030° avg. (8.7)
Visibility9999 m
Phenomena:Light Rain
Clouds:Few 065 Hf
Overcast 080 Hf
Expected CloudBase > 400 ft AGL from Temp-Dew spread
Ceiling8,000 ft
Temp11°C (ISA -4)
Dew Point10°C (94% RH)
AAT7.5°C
QNH999 hPa
Density Alt276 ft
Elevation89 ft
Report Wrong Elevation
Raw Report
PAEN 231953Z 03010KT 10SM -RA FEW065 OVC080 11/10 A2951 RMK AO2
SLP996 P0002 T01060100=

Extra information for PAEN:More info

Metar Taf Metar & Taf Last 4 Metars F.Rules Stats Wind Profile Meteogram Temp Stats Airport Information Weather charts Add Link Nearby VenuesMetar ALERT Operation Metar Decoded Social comments

AIRNAV info for PAEN